sensor_id;sensor_type;location;lat;lon;timestamp;temperature;humidity
17887;DHT22;9069;52.044;7.472;2023-05-10T00:00:55;18.70;99.90
17887;DHT22;9069;52.044;7.472;2023-05-10T00:03:21;18.70;99.90
17887;DHT22;9069;52.044;7.472;2023-05-10T00:05:48;18.70;99.90
17887;DHT22;9069;52.044;7.472;2023-05-10T00:08:15;18.70;99.90
17887;DHT22;9069;52.044;7.472;2023-05-10T00:10:42;18.70;99.90
17887;DHT22;9069;52.044;7.472;2023-05-10T00:13:08;18.70;99.90
17887;DHT22;9069;52.044;7.472;2023-05-10T00:15:35;18.70;99.90
17887;DHT22;9069;52.044;7.472;2023-05-10T00:18:02;18.70;99.90
17887;DHT22;9069;52.044;7.472;2023-05-10T00:20:29;18.70;99.90
17887;DHT22;9069;52.044;7.472;2023-05-10T00:22:56;18.70;99.90
17887;DHT22;9069;52.044;7.472;2023-05-10T00:25:22;18.70;99.90
17887;DHT22;9069;52.044;7.472;2023-05-10T00:27:49;18.70;99.90
17887;DHT22;9069;52.044;7.472;2023-05-10T00:30:16;18.70;99.90
17887;DHT22;9069;52.044;7.472;2023-05-10T00:32:43;18.80;99.90
17887;DHT22;9069;52.044;7.472;2023-05-10T00:35:10;18.70;99.90
17887;DHT22;9069;52.044;7.472;2023-05-10T00:37:37;18.70;99.90
17887;DHT22;9069;52.044;7.472;2023-05-10T00:40:04;18.70;99.90
17887;DHT22;9069;52.044;7.472;2023-05-10T00:42:31;18.70;99.90
17887;DHT22;9069;52.044;7.472;2023-05-10T00:44:58;18.70;99.90
17887;DHT22;9069;52.044;7.472;2023-05-10T00:47:25;18.60;99.90
17887;DHT22;9069;52.044;7.472;2023-05-10T00:49:52;18.60;99.90
17887;DHT22;9069;52.044;7.472;2023-05-10T00:52:19;18.60;99.90
17887;DHT22;9069;52.044;7.472;2023-05-10T00:54:46;18.60;99.90
17887;DHT22;9069;52.044;7.472;2023-05-10T00:57:14;18.60;99.90
17887;DHT22;9069;52.044;7.472;2023-05-10T00:59:41;18.60;99.90
17887;DHT22;9069;52.044;7.472;2023-05-10T01:02:08;18.60;99.90
17887;DHT22;9069;52.044;7.472;2023-05-10T01:04:35;18.60;99.90
17887;DHT22;9069;52.044;7.472;2023-05-10T01:07:02;18.50;99.90
17887;DHT22;9069;52.044;7.472;2023-05-10T01:09:29;18.50;99.90
17887;DHT22;9069;52.044;7.472;2023-05-10T01:11:56;18.50;99.90
17887;DHT22;9069;52.044;7.472;2023-05-10T01:14:24;18.50;99.90
17887;DHT22;9069;52.044;7.472;2023-05-10T01:16:52;18.40;99.90
17887;DHT22;9069;52.044;7.472;2023-05-10T01:19:28;18.50;99.90
17887;DHT22;9069;52.044;7.472;2023-05-10T01:22:18;18.50;99.90
17887;DHT22;9069;52.044;7.472;2023-05-10T01:28:08;18.40;99.90
17887;DHT22;9069;52.044;7.472;2023-05-10T01:33:39;18.30;99.90
17887;DHT22;9069;52.044;7.472;2023-05-10T01:36:21;18.30;99.90
17887;DHT22;9069;52.044;7.472;2023-05-10T01:39:01;18.30;99.90
17887;DHT22;9069;52.044;7.472;2023-05-10T01:41:39;18.20;99.90
17887;DHT22;9069;52.044;7.472;2023-05-10T01:44:39;18.20;99.90
17887;DHT22;9069;52.044;7.472;2023-05-10T01:47:53;18.20;99.90
17887;DHT22;9069;52.044;7.472;2023-05-10T01:50:02;18.20;99.90
17887;DHT22;9069;52.044;7.472;2023-05-10T01:52:42;18.10;99.90
17887;DHT22;9069;52.044;7.472;2023-05-10T01:55:14;18.10;99.90
17887;DHT22;9069;52.044;7.472;2023-05-10T01:57:44;18.00;99.90
17887;DHT22;9069;52.044;7.472;2023-05-10T02:00:13;18.00;99.90
17887;DHT22;9069;52.044;7.472;2023-05-10T02:02:45;18.00;99.90
17887;DHT22;9069;52.044;7.472;2023-05-10T02:05:13;17.90;99.90
17887;DHT22;9069;52.044;7.472;2023-05-10T02:07:42;17.90;99.90
17887;DHT22;9069;52.044;7.472;2023-05-10T02:10:10;17.90;99.90
17887;DHT22;9069;52.044;7.472;2023-05-10T02:12:42;17.90;99.90
17887;DHT22;9069;52.044;7.472;2023-05-10T02:15:11;17.90;99.90
17887;DHT22;9069;52.044;7.472;2023-05-10T02:17:39;17.90;99.90
17887;DHT22;9069;52.044;7.472;2023-05-10T02:20:08;17.90;99.90
17887;DHT22;9069;52.044;7.472;2023-05-10T02:22:35;17.80;99.90
17887;DHT22;9069;52.044;7.472;2023-05-10T02:25:03;17.80;99.90
17887;DHT22;9069;52.044;7.472;2023-05-10T02:27:30;17.80;99.90
17887;DHT22;9069;52.044;7.472;2023-05-10T02:29:58;17.80;99.90
17887;DHT22;9069;52.044;7.472;2023-05-10T02:32:27;17.80;99.90
17887;DHT22;9069;52.044;7.472;2023-05-10T02:34:56;17.80;99.90
17887;DHT22;9069;52.044;7.472;2023-05-10T02:37:24;17.80;99.90
17887;DHT22;9069;52.044;7.472;2023-05-10T02:39:54;17.80;99.90
17887;DHT22;9069;52.044;7.472;2023-05-10T02:42:33;17.60;99.90
17887;DHT22;9069;52.044;7.472;2023-05-10T02:45:08;17.80;99.90
17887;DHT22;9069;52.044;7.472;2023-05-10T02:47:36;17.80;99.90
17887;DHT22;9069;52.044;7.472;2023-05-10T02:50:03;17.70;99.90
17887;DHT22;9069;52.044;7.472;2023-05-10T02:52:46;17.80;99.90
17887;DHT22;9069;52.044;7.472;2023-05-10T02:55:15;17.70;99.90
17887;DHT22;9069;52.044;7.472;2023-05-10T02:57:48;17.70;99.90
17887;DHT22;9069;52.044;7.472;2023-05-10T03:00:16;17.70;99.90
17887;DHT22;9069;52.044;7.472;2023-05-10T03:02:43;17.70;99.90
17887;DHT22;9069;52.044;7.472;2023-05-10T03:05:10;17.70;99.90
17887;DHT22;9069;52.044;7.472;2023-05-10T03:07:37;17.70;99.90
17887;DHT22;9069;52.044;7.472;2023-05-10T03:10:04;17.70;99.90
17887;DHT22;9069;52.044;7.472;2023-05-10T03:21:01;17.60;99.90
17887;DHT22;9069;52.044;7.472;2023-05-10T03:26:02;17.60;99.90
17887;DHT22;9069;52.044;7.472;2023-05-10T03:28:30;17.60;99.90
17887;DHT22;9069;52.044;7.472;2023-05-10T03:30:58;17.50;99.90
17887;DHT22;9069;52.044;7.472;2023-05-10T03:33:26;17.50;99.90
17887;DHT22;9069;52.044;7.472;2023-05-10T03:35:53;17.50;99.90
17887;DHT22;9069;52.044;7.472;2023-05-10T03:38:19;17.50;99.90
17887;DHT22;9069;52.044;7.472;2023-05-10T03:40:46;17.50;99.90
17887;DHT22;9069;52.044;7.472;2023-05-10T03:43:13;17.50;99.90
17887;DHT22;9069;52.044;7.472;2023-05-10T03:45:39;17.50;99.90
17887;DHT22;9069;52.044;7.472;2023-05-10T03:48:06;17.50;99.90
17887;DHT22;9069;52.044;7.472;2023-05-10T03:50:33;17.50;99.90
17887;DHT22;9069;52.044;7.472;2023-05-10T03:53:00;17.50;99.90
17887;DHT22;9069;52.044;7.472;2023-05-10T03:55:27;17.40;99.90
17887;DHT22;9069;52.044;7.472;2023-05-10T03:57:55;17.30;99.90
17887;DHT22;9069;52.044;7.472;2023-05-10T04:00:22;17.40;99.90
17887;DHT22;9069;52.044;7.472;2023-05-10T04:02:53;17.40;99.90
17887;DHT22;9069;52.044;7.472;2023-05-10T04:05:20;17.40;99.90
17887;DHT22;9069;52.044;7.472;2023-05-10T04:07:46;17.40;99.90
17887;DHT22;9069;52.044;7.472;2023-05-10T04:10:15;17.40;99.90
17887;DHT22;9069;52.044;7.472;2023-05-10T04:12:43;17.40;99.90
17887;DHT22;9069;52.044;7.472;2023-05-10T04:15:10;17.40;99.90
17887;DHT22;9069;52.044;7.472;2023-05-10T04:17:37;17.40;99.90
17887;DHT22;9069;52.044;7.472;2023-05-10T04:20:04;17.40;99.90
17887;DHT22;9069;52.044;7.472;2023-05-10T04:22:32;17.40;99.90
17887;DHT22;9069;52.044;7.472;2023-05-10T04:24:58;17.40;99.90
17887;DHT22;9069;52.044;7.472;2023-05-10T04:27:25;17.40;99.90
17887;DHT22;9069;52.044;7.472;2023-05-10T04:29:52;17.40;99.90
17887;DHT22;9069;52.044;7.472;2023-05-10T04:32:18;17.40;99.90
17887;DHT22;9069;52.044;7.472;2023-05-10T04:34:47;17.40;99.90
17887;DHT22;9069;52.044;7.472;2023-05-10T04:37:14;17.40;99.90
17887;DHT22;9069;52.044;7.472;2023-05-10T04:39:40;17.40;99.90
17887;DHT22;9069;52.044;7.472;2023-05-10T04:42:08;17.40;99.90
17887;DHT22;9069;52.044;7.472;2023-05-10T04:44:35;17.40;99.90
17887;DHT22;9069;52.044;7.472;2023-05-10T04:47:02;17.40;99.90
17887;DHT22;9069;52.044;7.472;2023-05-10T04:49:29;17.40;99.90
17887;DHT22;9069;52.044;7.472;2023-05-10T04:51:56;17.40;99.90
17887;DHT22;9069;52.044;7.472;2023-05-10T04:54:23;17.40;99.90
17887;DHT22;9069;52.044;7.472;2023-05-10T04:56:49;17.40;99.90
17887;DHT22;9069;52.044;7.472;2023-05-10T04:59:16;17.40;99.90
17887;DHT22;9069;52.044;7.472;2023-05-10T05:01:43;17.50;99.90
17887;DHT22;9069;52.044;7.472;2023-05-10T05:04:10;17.40;99.90
17887;DHT22;9069;52.044;7.472;2023-05-10T05:06:37;17.40;99.90
17887;DHT22;9069;52.044;7.472;2023-05-10T05:09:04;17.50;99.90
17887;DHT22;9069;52.044;7.472;2023-05-10T05:11:30;17.50;99.90
17887;DHT22;9069;52.044;7.472;2023-05-10T05:13:57;17.50;99.90
17887;DHT22;9069;52.044;7.472;2023-05-10T05:16:25;17.50;99.90
17887;DHT22;9069;52.044;7.472;2023-05-10T05:18:52;17.50;99.90
17887;DHT22;9069;52.044;7.472;2023-05-10T05:21:19;17.50;99.90
17887;DHT22;9069;52.044;7.472;2023-05-10T05:23:46;17.60;99.90
17887;DHT22;9069;52.044;7.472;2023-05-10T05:26:13;17.60;99.90
17887;DHT22;9069;52.044;7.472;2023-05-10T05:28:41;17.60;99.90
17887;DHT22;9069;52.044;7.472;2023-05-10T05:31:08;17.60;99.90
17887;DHT22;9069;52.044;7.472;2023-05-10T05:33:36;17.70;99.90
17887;DHT22;9069;52.044;7.472;2023-05-10T05:36:03;17.70;99.90
17887;DHT22;9069;52.044;7.472;2023-05-10T05:38:30;17.70;99.90
17887;DHT22;9069;52.044;7.472;2023-05-10T05:40:57;17.70;99.90
17887;DHT22;9069;52.044;7.472;2023-05-10T05:43:24;17.70;99.90
17887;DHT22;9069;52.044;7.472;2023-05-10T05:45:52;17.80;99.90
17887;DHT22;9069;52.044;7.472;2023-05-10T05:48:20;17.80;99.90
17887;DHT22;9069;52.044;7.472;2023-05-10T05:50:47;17.80;99.90
17887;DHT22;9069;52.044;7.472;2023-05-10T05:53:13;17.80;99.90
17887;DHT22;9069;52.044;7.472;2023-05-10T05:55:40;17.80;99.90
17887;DHT22;9069;52.044;7.472;2023-05-10T05:58:07;17.90;99.90
17887;DHT22;9069;52.044;7.472;2023-05-10T06:00:33;17.90;99.90
17887;DHT22;9069;52.044;7.472;2023-05-10T06:03:00;17.90;99.90
17887;DHT22;9069;52.044;7.472;2023-05-10T06:05:27;17.90;99.90
17887;DHT22;9069;52.044;7.472;2023-05-10T06:07:54;18.00;99.90
17887;DHT22;9069;52.044;7.472;2023-05-10T06:10:20;18.00;99.90
17887;DHT22;9069;52.044;7.472;2023-05-10T06:12:49;18.10;99.90
17887;DHT22;9069;52.044;7.472;2023-05-10T06:15:15;18.10;99.90
17887;DHT22;9069;52.044;7.472;2023-05-10T06:17:43;18.20;99.90
17887;DHT22;9069;52.044;7.472;2023-05-10T06:20:11;18.20;99.90
17887;DHT22;9069;52.044;7.472;2023-05-10T06:22:38;18.30;99.90
17887;DHT22;9069;52.044;7.472;2023-05-10T06:25:05;18.30;99.90
17887;DHT22;9069;52.044;7.472;2023-05-10T06:27:32;18.40;99.90
17887;DHT22;9069;52.044;7.472;2023-05-10T06:29:58;18.40;99.90
17887;DHT22;9069;52.044;7.472;2023-05-10T06:32:38;18.40;99.90
17887;DHT22;9069;52.044;7.472;2023-05-10T06:35:05;18.40;99.90
17887;DHT22;9069;52.044;7.472;2023-05-10T06:37:32;18.50;99.90
17887;DHT22;9069;52.044;7.472;2023-05-10T06:39:58;18.50;99.90
17887;DHT22;9069;52.044;7.472;2023-05-10T06:42:26;18.50;99.90
17887;DHT22;9069;52.044;7.472;2023-05-10T06:44:53;18.50;99.90
17887;DHT22;9069;52.044;7.472;2023-05-10T06:47:20;18.50;99.90
17887;DHT22;9069;52.044;7.472;2023-05-10T06:49:46;18.50;99.90
17887;DHT22;9069;52.044;7.472;2023-05-10T06:52:13;18.50;99.90
17887;DHT22;9069;52.044;7.472;2023-05-10T06:54:41;18.60;99.90
17887;DHT22;9069;52.044;7.472;2023-05-10T06:57:07;18.60;99.90
17887;DHT22;9069;52.044;7.472;2023-05-10T06:59:54;18.60;99.90
17887;DHT22;9069;52.044;7.472;2023-05-10T07:02:22;18.60;99.90
17887;DHT22;9069;52.044;7.472;2023-05-10T07:04:49;18.70;99.90
17887;DHT22;9069;52.044;7.472;2023-05-10T07:07:18;18.70;99.90
17887;DHT22;9069;52.044;7.472;2023-05-10T07:09:45;18.70;99.90
17887;DHT22;9069;52.044;7.472;2023-05-10T07:12:12;18.80;99.90
17887;DHT22;9069;52.044;7.472;2023-05-10T07:14:41;18.80;99.90
17887;DHT22;9069;52.044;7.472;2023-05-10T07:17:08;18.90;99.90
17887;DHT22;9069;52.044;7.472;2023-05-10T07:19:35;18.90;99.90
17887;DHT22;9069;52.044;7.472;2023-05-10T07:22:02;18.90;99.90
17887;DHT22;9069;52.044;7.472;2023-05-10T07:24:29;18.90;99.90
17887;DHT22;9069;52.044;7.472;2023-05-10T07:26:57;19.00;99.90
17887;DHT22;9069;52.044;7.472;2023-05-10T07:29:24;19.00;99.90
17887;DHT22;9069;52.044;7.472;2023-05-10T07:31:51;19.00;99.90
17887;DHT22;9069;52.044;7.472;2023-05-10T07:34:17;19.10;99.90
17887;DHT22;9069;52.044;7.472;2023-05-10T07:36:44;19.10;99.90
17887;DHT22;9069;52.044;7.472;2023-05-10T07:39:11;19.20;99.90
17887;DHT22;9069;52.044;7.472;2023-05-10T07:41:46;19.20;99.90
17887;DHT22;9069;52.044;7.472;2023-05-10T07:44:13;19.30;99.90
17887;DHT22;9069;52.044;7.472;2023-05-10T07:46:40;19.40;99.90
17887;DHT22;9069;52.044;7.472;2023-05-10T07:49:07;19.40;99.90
17887;DHT22;9069;52.044;7.472;2023-05-10T07:51:34;19.40;99.90
17887;DHT22;9069;52.044;7.472;2023-05-10T07:54:00;19.50;99.90
17887;DHT22;9069;52.044;7.472;2023-05-10T07:56:31;19.50;99.90
17887;DHT22;9069;52.044;7.472;2023-05-10T07:58:59;19.50;99.90
17887;DHT22;9069;52.044;7.472;2023-05-10T08:01:29;19.60;99.90
17887;DHT22;9069;52.044;7.472;2023-05-10T08:03:56;19.60;99.90
17887;DHT22;9069;52.044;7.472;2023-05-10T08:06:23;19.60;99.90
17887;DHT22;9069;52.044;7.472;2023-05-10T08:08:49;19.70;99.90
17887;DHT22;9069;52.044;7.472;2023-05-10T08:11:17;19.70;99.90
17887;DHT22;9069;52.044;7.472;2023-05-10T08:13:44;19.70;99.90
17887;DHT22;9069;52.044;7.472;2023-05-10T08:16:11;19.80;99.90
17887;DHT22;9069;52.044;7.472;2023-05-10T08:18:39;19.80;99.90
17887;DHT22;9069;52.044;7.472;2023-05-10T08:21:06;19.80;99.90
17887;DHT22;9069;52.044;7.472;2023-05-10T08:23:33;19.90;99.90
17887;DHT22;9069;52.044;7.472;2023-05-10T08:26:00;19.90;99.90
17887;DHT22;9069;52.044;7.472;2023-05-10T08:28:27;19.90;99.90
17887;DHT22;9069;52.044;7.472;2023-05-10T08:30:53;20.00;99.90
17887;DHT22;9069;52.044;7.472;2023-05-10T08:33:20;20.10;99.90
17887;DHT22;9069;52.044;7.472;2023-05-10T08:35:47;20.10;99.90
17887;DHT22;9069;52.044;7.472;2023-05-10T08:38:14;20.20;99.90
17887;DHT22;9069;52.044;7.472;2023-05-10T08:40:42;20.30;99.90
17887;DHT22;9069;52.044;7.472;2023-05-10T08:43:11;20.30;99.90
17887;DHT22;9069;52.044;7.472;2023-05-10T08:45:42;20.40;99.90
17887;DHT22;9069;52.044;7.472;2023-05-10T08:48:10;20.50;99.90
17887;DHT22;9069;52.044;7.472;2023-05-10T08:50:39;20.50;99.90
17887;DHT22;9069;52.044;7.472;2023-05-10T08:53:09;20.60;99.90
17887;DHT22;9069;52.044;7.472;2023-05-10T08:55:37;20.60;99.90
17887;DHT22;9069;52.044;7.472;2023-05-10T08:58:06;20.60;99.90
17887;DHT22;9069;52.044;7.472;2023-05-10T09:00:33;20.70;99.90
17887;DHT22;9069;52.044;7.472;2023-05-10T09:03:01;20.70;99.90
17887;DHT22;9069;52.044;7.472;2023-05-10T09:05:28;20.70;99.90
17887;DHT22;9069;52.044;7.472;2023-05-10T09:07:55;20.70;99.90
17887;DHT22;9069;52.044;7.472;2023-05-10T09:10:22;20.70;99.90
17887;DHT22;9069;52.044;7.472;2023-05-10T09:12:53;20.70;99.90
17887;DHT22;9069;52.044;7.472;2023-05-10T09:15:20;20.70;99.90
17887;DHT22;9069;52.044;7.472;2023-05-10T09:17:47;20.70;99.90
17887;DHT22;9069;52.044;7.472;2023-05-10T09:20:15;20.80;99.90
17887;DHT22;9069;52.044;7.472;2023-05-10T09:22:44;20.80;99.90
17887;DHT22;9069;52.044;7.472;2023-05-10T09:25:13;20.80;99.90
17887;DHT22;9069;52.044;7.472;2023-05-10T09:27:43;20.80;99.90
17887;DHT22;9069;52.044;7.472;2023-05-10T09:30:14;20.90;99.90
17887;DHT22;9069;52.044;7.472;2023-05-10T09:32:44;20.90;99.90
17887;DHT22;9069;52.044;7.472;2023-05-10T09:37:39;21.00;99.90
17887;DHT22;9069;52.044;7.472;2023-05-10T09:40:14;21.00;99.80
17887;DHT22;9069;52.044;7.472;2023-05-10T09:42:57;21.10;99.30
17887;DHT22;9069;52.044;7.472;2023-05-10T09:45:27;21.10;98.50
17887;DHT22;9069;52.044;7.472;2023-05-10T09:47:54;21.10;99.30
17887;DHT22;9069;52.044;7.472;2023-05-10T09:50:23;21.20;99.50
17887;DHT22;9069;52.044;7.472;2023-05-10T09:52:56;21.20;99.50
17887;DHT22;9069;52.044;7.472;2023-05-10T09:55:46;21.20;99.00
17887;DHT22;9069;52.044;7.472;2023-05-10T09:58:15;21.20;98.20
17887;DHT22;9069;52.044;7.472;2023-05-10T10:00:43;21.20;99.30
17887;DHT22;9069;52.044;7.472;2023-05-10T10:03:15;21.30;99.20
17887;DHT22;9069;52.044;7.472;2023-05-10T10:05:43;21.30;98.80
17887;DHT22;9069;52.044;7.472;2023-05-10T10:08:10;21.30;99.10
17887;DHT22;9069;52.044;7.472;2023-05-10T10:10:39;21.30;99.10
17887;DHT22;9069;52.044;7.472;2023-05-10T10:13:07;21.30;99.00
17887;DHT22;9069;52.044;7.472;2023-05-10T10:15:34;21.30;99.10
17887;DHT22;9069;52.044;7.472;2023-05-10T10:18:02;21.40;99.10
17887;DHT22;9069;52.044;7.472;2023-05-10T10:20:30;21.40;99.10
17887;DHT22;9069;52.044;7.472;2023-05-10T10:22:57;21.40;99.00
17887;DHT22;9069;52.044;7.472;2023-05-10T10:25:24;21.40;99.10
17887;DHT22;9069;52.044;7.472;2023-05-10T10:30:43;21.40;99.00
17887;DHT22;9069;52.044;7.472;2023-05-10T10:35:54;21.50;97.90
17887;DHT22;9069;52.044;7.472;2023-05-10T10:38:21;21.50;98.90
17887;DHT22;9069;52.044;7.472;2023-05-10T10:41:02;21.60;98.50
17887;DHT22;9069;52.044;7.472;2023-05-10T10:43:29;21.60;97.60
17887;DHT22;9069;52.044;7.472;2023-05-10T10:46:16;21.60;98.50
17887;DHT22;9069;52.044;7.472;2023-05-10T10:48:48;21.70;97.50
17887;DHT22;9069;52.044;7.472;2023-05-10T10:51:15;21.70;98.30
17887;DHT22;9069;52.044;7.472;2023-05-10T10:53:43;21.70;98.70
17887;DHT22;9069;52.044;7.472;2023-05-10T10:56:13;21.80;98.60
17887;DHT22;9069;52.044;7.472;2023-05-10T10:58:49;21.90;98.00
17887;DHT22;9069;52.044;7.472;2023-05-10T11:01:18;22.00;97.50
17887;DHT22;9069;52.044;7.472;2023-05-10T11:06:34;22.20;97.20
17887;DHT22;9069;52.044;7.472;2023-05-10T11:09:12;22.20;98.10
17887;DHT22;9069;52.044;7.472;2023-05-10T11:11:52;22.30;97.10
17887;DHT22;9069;52.044;7.472;2023-05-10T11:14:22;22.40;96.60
17887;DHT22;9069;52.044;7.472;2023-05-10T11:16:49;22.40;97.40
17887;DHT22;9069;52.044;7.472;2023-05-10T11:19:17;22.40;97.40
17887;DHT22;9069;52.044;7.472;2023-05-10T11:21:51;22.40;97.30
17887;DHT22;9069;52.044;7.472;2023-05-10T11:24:22;22.30;97.30
17887;DHT22;9069;52.044;7.472;2023-05-10T11:26:50;22.30;98.20
17887;DHT22;9069;52.044;7.472;2023-05-10T11:29:18;22.30;98.40
17887;DHT22;9069;52.044;7.472;2023-05-10T11:31:46;22.40;98.70
17887;DHT22;9069;52.044;7.472;2023-05-10T11:34:29;22.40;98.30
17887;DHT22;9069;52.044;7.472;2023-05-10T11:37:02;22.50;97.30
17887;DHT22;9069;52.044;7.472;2023-05-10T11:39:30;22.50;97.90
17887;DHT22;9069;52.044;7.472;2023-05-10T11:41:58;22.60;97.40
17887;DHT22;9069;52.044;7.472;2023-05-10T11:44:32;22.50;97.20
17887;DHT22;9069;52.044;7.472;2023-05-10T11:47:02;22.60;96.80
17887;DHT22;9069;52.044;7.472;2023-05-10T11:49:29;22.60;97.10
17887;DHT22;9069;52.044;7.472;2023-05-10T11:52:08;22.60;97.30
17887;DHT22;9069;52.044;7.472;2023-05-10T11:54:35;22.60;96.20
17887;DHT22;9069;52.044;7.472;2023-05-10T11:57:02;22.60;97.10
17887;DHT22;9069;52.044;7.472;2023-05-10T11:59:29;22.70;96.90
17887;DHT22;9069;52.044;7.472;2023-05-10T12:01:56;22.70;96.80
17887;DHT22;9069;52.044;7.472;2023-05-10T12:04:23;22.80;96.80
17887;DHT22;9069;52.044;7.472;2023-05-10T12:06:50;22.70;96.70
17887;DHT22;9069;52.044;7.472;2023-05-10T12:09:17;22.70;96.80
17887;DHT22;9069;52.044;7.472;2023-05-10T12:11:57;22.80;96.70
17887;DHT22;9069;52.044;7.472;2023-05-10T12:14:24;22.80;96.80
17887;DHT22;9069;52.044;7.472;2023-05-10T12:16:50;22.90;96.60
17887;DHT22;9069;52.044;7.472;2023-05-10T12:19:21;22.90;96.60
17887;DHT22;9069;52.044;7.472;2023-05-10T12:21:48;23.00;96.10
17887;DHT22;9069;52.044;7.472;2023-05-10T12:24:15;23.10;96.40
17887;DHT22;9069;52.044;7.472;2023-05-10T12:26:45;23.20;96.20
17887;DHT22;9069;52.044;7.472;2023-05-10T12:29:14;23.20;96.30
17887;DHT22;9069;52.044;7.472;2023-05-10T12:31:58;23.20;95.80
17887;DHT22;9069;52.044;7.472;2023-05-10T12:34:35;23.30;94.40
17887;DHT22;9069;52.044;7.472;2023-05-10T12:37:03;23.40;94.70
17887;DHT22;9069;52.044;7.472;2023-05-10T12:39:43;23.40;95.40
17887;DHT22;9069;52.044;7.472;2023-05-10T12:42:11;23.40;94.30
17887;DHT22;9069;52.044;7.472;2023-05-10T12:44:38;23.40;95.20
17887;DHT22;9069;52.044;7.472;2023-05-10T12:47:05;23.50;95.00
17887;DHT22;9069;52.044;7.472;2023-05-10T12:49:32;23.50;94.80
17887;DHT22;9069;52.044;7.472;2023-05-10T12:51:59;23.50;95.00
17887;DHT22;9069;52.044;7.472;2023-05-10T12:54:25;23.50;94.40
17887;DHT22;9069;52.044;7.472;2023-05-10T12:56:52;23.50;94.10
17887;DHT22;9069;52.044;7.472;2023-05-10T12:59:19;23.40;93.80
17887;DHT22;9069;52.044;7.472;2023-05-10T13:01:45;23.40;93.90
17887;DHT22;9069;52.044;7.472;2023-05-10T13:04:12;23.30;94.30
17887;DHT22;9069;52.044;7.472;2023-05-10T13:06:39;23.30;94.40
17887;DHT22;9069;52.044;7.472;2023-05-10T13:09:06;23.30;94.20
17887;DHT22;9069;52.044;7.472;2023-05-10T13:11:33;23.30;94.20
17887;DHT22;9069;52.044;7.472;2023-05-10T13:14:00;23.30;94.30
17887;DHT22;9069;52.044;7.472;2023-05-10T13:16:26;23.30;94.20
17887;DHT22;9069;52.044;7.472;2023-05-10T13:18:53;23.30;93.90
17887;DHT22;9069;52.044;7.472;2023-05-10T13:21:20;23.30;93.70
17887;DHT22;9069;52.044;7.472;2023-05-10T13:23:47;23.30;93.50
17887;DHT22;9069;52.044;7.472;2023-05-10T13:26:14;23.30;93.20
17887;DHT22;9069;52.044;7.472;2023-05-10T13:28:40;23.20;92.80
17887;DHT22;9069;52.044;7.472;2023-05-10T13:31:07;23.10;92.60
17887;DHT22;9069;52.044;7.472;2023-05-10T13:33:34;23.10;92.50
17887;DHT22;9069;52.044;7.472;2023-05-10T13:36:01;23.00;92.50
17887;DHT22;9069;52.044;7.472;2023-05-10T13:38:28;23.00;92.60
17887;DHT22;9069;52.044;7.472;2023-05-10T13:40:54;22.90;92.50
17887;DHT22;9069;52.044;7.472;2023-05-10T13:43:21;22.90;92.60
17887;DHT22;9069;52.044;7.472;2023-05-10T13:45:48;22.90;92.80
17887;DHT22;9069;52.044;7.472;2023-05-10T13:48:15;22.90;92.70
17887;DHT22;9069;52.044;7.472;2023-05-10T13:50:42;22.90;92.70
17887;DHT22;9069;52.044;7.472;2023-05-10T13:53:09;22.90;92.60
17887;DHT22;9069;52.044;7.472;2023-05-10T13:55:35;22.90;92.60
17887;DHT22;9069;52.044;7.472;2023-05-10T13:58:02;22.90;92.60
17887;DHT22;9069;52.044;7.472;2023-05-10T14:00:29;22.80;92.60
17887;DHT22;9069;52.044;7.472;2023-05-10T14:02:56;22.80;92.40
17887;DHT22;9069;52.044;7.472;2023-05-10T14:05:23;22.80;92.40
17887;DHT22;9069;52.044;7.472;2023-05-10T14:07:52;22.70;92.40
17887;DHT22;9069;52.044;7.472;2023-05-10T14:10:18;22.70;92.70
17887;DHT22;9069;52.044;7.472;2023-05-10T14:12:45;22.60;92.80
17887;DHT22;9069;52.044;7.472;2023-05-10T14:15:12;22.60;92.90
17887;DHT22;9069;52.044;7.472;2023-05-10T14:17:39;22.60;93.00
17887;DHT22;9069;52.044;7.472;2023-05-10T14:20:06;22.60;93.20
17887;DHT22;9069;52.044;7.472;2023-05-10T14:22:33;22.60;93.20
17887;DHT22;9069;52.044;7.472;2023-05-10T14:25:00;22.60;93.30
17887;DHT22;9069;52.044;7.472;2023-05-10T14:27:27;22.60;93.50
17887;DHT22;9069;52.044;7.472;2023-05-10T14:29:54;22.70;93.50
17887;DHT22;9069;52.044;7.472;2023-05-10T14:32:20;22.70;93.20
17887;DHT22;9069;52.044;7.472;2023-05-10T14:34:47;22.70;93.00
17887;DHT22;9069;52.044;7.472;2023-05-10T14:37:14;22.70;93.00
17887;DHT22;9069;52.044;7.472;2023-05-10T14:39:41;22.70;93.00
17887;DHT22;9069;52.044;7.472;2023-05-10T14:42:09;22.80;92.90
17887;DHT22;9069;52.044;7.472;2023-05-10T14:44:35;22.90;92.90
17887;DHT22;9069;52.044;7.472;2023-05-10T14:47:02;22.80;92.80
17887;DHT22;9069;52.044;7.472;2023-05-10T14:49:29;22.80;92.80
17887;DHT22;9069;52.044;7.472;2023-05-10T14:51:55;22.80;92.80
17887;DHT22;9069;52.044;7.472;2023-05-10T14:54:22;22.80;92.70
17887;DHT22;9069;52.044;7.472;2023-05-10T14:56:49;22.80;92.80
17887;DHT22;9069;52.044;7.472;2023-05-10T14:59:16;22.80;92.60
17887;DHT22;9069;52.044;7.472;2023-05-10T15:01:43;22.80;92.70
17887;DHT22;9069;52.044;7.472;2023-05-10T15:04:11;22.70;92.50
17887;DHT22;9069;52.044;7.472;2023-05-10T15:06:39;22.70;92.60
17887;DHT22;9069;52.044;7.472;2023-05-10T15:09:06;22.70;92.50
17887;DHT22;9069;52.044;7.472;2023-05-10T15:11:33;22.70;92.50
17887;DHT22;9069;52.044;7.472;2023-05-10T15:14:00;22.70;92.50
17887;DHT22;9069;52.044;7.472;2023-05-10T15:16:28;22.70;92.20
17887;DHT22;9069;52.044;7.472;2023-05-10T15:18:55;22.60;92.30
17887;DHT22;9069;52.044;7.472;2023-05-10T15:21:21;22.60;92.30
17887;DHT22;9069;52.044;7.472;2023-05-10T15:23:48;22.60;92.30
17887;DHT22;9069;52.044;7.472;2023-05-10T15:26:15;22.60;92.30
17887;DHT22;9069;52.044;7.472;2023-05-10T15:28:41;22.50;92.40
17887;DHT22;9069;52.044;7.472;2023-05-10T15:31:08;22.50;92.60
17887;DHT22;9069;52.044;7.472;2023-05-10T15:33:37;22.50;92.80
17887;DHT22;9069;52.044;7.472;2023-05-10T15:36:04;22.40;92.50
17887;DHT22;9069;52.044;7.472;2023-05-10T15:38:30;22.40;93.00
17887;DHT22;9069;52.044;7.472;2023-05-10T15:40:57;22.40;93.00
17887;DHT22;9069;52.044;7.472;2023-05-10T15:43:24;22.30;93.00
17887;DHT22;9069;52.044;7.472;2023-05-10T15:45:51;22.30;93.00
17887;DHT22;9069;52.044;7.472;2023-05-10T15:48:17;22.30;93.00
17887;DHT22;9069;52.044;7.472;2023-05-10T15:50:44;22.30;92.90
17887;DHT22;9069;52.044;7.472;2023-05-10T15:53:11;22.30;92.90
17887;DHT22;9069;52.044;7.472;2023-05-10T15:55:38;22.30;93.00
17887;DHT22;9069;52.044;7.472;2023-05-10T15:58:05;22.30;92.80
17887;DHT22;9069;52.044;7.472;2023-05-10T16:00:31;22.30;92.90
17887;DHT22;9069;52.044;7.472;2023-05-10T16:02:58;22.30;92.90
17887;DHT22;9069;52.044;7.472;2023-05-10T16:05:25;22.20;92.80
17887;DHT22;9069;52.044;7.472;2023-05-10T16:07:55;22.20;92.70
17887;DHT22;9069;52.044;7.472;2023-05-10T16:10:22;22.20;92.80
17887;DHT22;9069;52.044;7.472;2023-05-10T16:12:48;22.20;92.90
17887;DHT22;9069;52.044;7.472;2023-05-10T16:15:15;22.30;92.80
17887;DHT22;9069;52.044;7.472;2023-05-10T16:17:42;22.30;92.90
17887;DHT22;9069;52.044;7.472;2023-05-10T16:20:09;22.30;92.90